createdAt,value
2018-12-27T00:01:09.428Z,99.90
2018-12-27T00:03:38.464Z,99.90
2018-12-27T00:06:07.468Z,99.90
2018-12-27T00:08:36.420Z,99.90
2018-12-27T00:11:05.454Z,99.90
2018-12-27T00:13:34.417Z,99.90
2018-12-27T00:16:06.191Z,99.90
2018-12-27T00:18:35.133Z,99.90
2018-12-27T00:21:04.141Z,99.90
2018-12-27T00:23:33.183Z,99.90
2018-12-27T00:26:02.120Z,99.90
2018-12-27T00:28:50.240Z,99.90
2018-12-27T00:31:19.292Z,99.90
2018-12-27T00:33:48.332Z,99.90
2018-12-27T00:36:17.349Z,99.90
2018-12-27T00:38:46.396Z,99.90
2018-12-27T00:41:15.432Z,99.90
2018-12-27T00:43:44.432Z,99.90
2018-12-27T00:46:13.455Z,99.90
2018-12-27T00:48:42.475Z,99.90
2018-12-27T00:51:11.509Z,99.90
2018-12-27T00:53:40.521Z,99.90
2018-12-27T00:56:09.563Z,99.90
2018-12-27T00:58:38.564Z,99.90
2018-12-27T01:01:08.008Z,99.90
2018-12-27T01:03:37.008Z,99.90
2018-12-27T01:06:06.024Z,99.90
2018-12-27T01:08:35.059Z,99.90
2018-12-27T01:11:04.103Z,99.90
2018-12-27T01:13:33.111Z,99.90
2018-12-27T01:16:02.392Z,99.90
2018-12-27T01:18:31.537Z,99.90
2018-12-27T01:21:00.558Z,99.90
2018-12-27T01:23:29.597Z,99.90
2018-12-27T01:25:58.611Z,99.90
2018-12-27T01:28:27.624Z,99.90
2018-12-27T01:30:57.154Z,99.90
2018-12-27T01:33:26.458Z,99.90
2018-12-27T01:35:55.464Z,99.90
2018-12-27T01:38:24.469Z,99.90
2018-12-27T01:40:53.468Z,99.90
2018-12-27T01:43:22.483Z,99.90
2018-12-27T01:45:51.508Z,99.90
2018-12-27T01:48:20.523Z,99.90
2018-12-27T01:50:49.525Z,99.90
2018-12-27T01:53:18.539Z,99.90
2018-12-27T01:55:47.587Z,99.90
2018-12-27T01:58:16.618Z,99.90
2018-12-27T02:00:45.648Z,99.90
2018-12-27T02:03:14.668Z,99.90
2018-12-27T02:05:43.705Z,99.90
2018-12-27T02:08:12.720Z,99.90
2018-12-27T02:10:41.926Z,99.90
2018-12-27T02:13:10.959Z,99.90
2018-12-27T02:15:39.980Z,99.90
2018-12-27T02:18:09.020Z,99.90
2018-12-27T02:20:38.043Z,99.90
2018-12-27T02:23:07.080Z,99.90
2018-12-27T02:25:36.176Z,99.90
2018-12-27T02:28:05.200Z,99.90
2018-12-27T02:30:34.255Z,99.90
2018-12-27T02:33:03.269Z,99.90
2018-12-27T02:35:32.299Z,99.90
2018-12-27T02:38:01.303Z,99.90
2018-12-27T02:40:30.337Z,99.90
2018-12-27T02:42:59.393Z,99.90
2018-12-27T02:45:28.415Z,99.90
2018-12-27T02:47:57.440Z,99.90
2018-12-27T02:50:26.491Z,99.90
2018-12-27T02:52:55.488Z,99.90
2018-12-27T02:55:24.527Z,99.90
2018-12-27T02:57:53.545Z,99.90
2018-12-27T03:00:22.564Z,99.90
2018-12-27T03:02:51.537Z,99.90
2018-12-27T03:05:20.611Z,99.90
2018-12-27T03:07:49.625Z,99.90
2018-12-27T03:10:18.672Z,99.90
2018-12-27T03:12:53.740Z,99.90
2018-12-27T03:15:22.753Z,99.90
2018-12-27T03:17:51.755Z,99.90
2018-12-27T03:20:20.810Z,99.90
2018-12-27T03:22:49.812Z,99.90
2018-12-27T03:25:18.844Z,99.90
2018-12-27T03:27:47.866Z,99.90
2018-12-27T03:30:16.890Z,99.90
2018-12-27T03:32:45.879Z,99.90
2018-12-27T03:35:14.854Z,99.90
2018-12-27T03:37:43.924Z,99.90
2018-12-27T03:40:12.919Z,99.90
2018-12-27T03:42:41.949Z,99.90
2018-12-27T03:45:10.922Z,99.90
2018-12-27T03:47:39.984Z,99.90
2018-12-27T03:50:09.002Z,99.90
2018-12-27T03:52:38.051Z,99.90
2018-12-27T03:55:07.096Z,99.90
2018-12-27T03:57:36.112Z,99.90
2018-12-27T04:00:05.161Z,99.90
2018-12-27T04:02:34.229Z,99.90
2018-12-27T04:05:03.273Z,99.90
2018-12-27T04:07:32.284Z,99.90
2018-12-27T04:10:20.409Z,99.90
2018-12-27T04:12:49.418Z,99.90
2018-12-27T04:15:18.297Z,99.90
2018-12-27T04:17:47.180Z,99.90
2018-12-27T04:20:16.116Z,99.90
2018-12-27T04:22:45.057Z,99.90
2018-12-27T04:25:14.063Z,99.90
2018-12-27T04:27:43.010Z,99.90
2018-12-27T04:30:11.934Z,99.90
2018-12-27T04:32:42.362Z,99.90
2018-12-27T04:35:12.272Z,99.90
2018-12-27T04:37:41.157Z,99.90
2018-12-27T04:40:10.235Z,99.90
2018-12-27T04:42:40.227Z,99.90
2018-12-27T04:45:09.105Z,99.90
2018-12-27T04:47:38.060Z,99.90
2018-12-27T04:50:07.080Z,99.90
2018-12-27T04:52:36.007Z,99.90
2018-12-27T04:55:05.021Z,99.90
2018-12-27T04:57:34.047Z,99.90
2018-12-27T05:00:03.051Z,99.90
2018-12-27T05:02:32.010Z,99.90
2018-12-27T05:05:00.941Z,99.90
2018-12-27T05:07:29.984Z,99.90
2018-12-27T05:09:58.909Z,99.90
2018-12-27T05:12:27.769Z,99.90
2018-12-27T05:14:56.628Z,99.90
2018-12-27T05:17:25.496Z,99.90
2018-12-27T05:19:54.460Z,99.90
2018-12-27T05:22:23.402Z,99.90
2018-12-27T05:24:52.260Z,99.90
2018-12-27T05:27:21.567Z,99.90
2018-12-27T05:29:50.621Z,99.90
2018-12-27T05:32:19.533Z,99.90
2018-12-27T05:34:48.480Z,99.90
2018-12-27T05:37:18.416Z,99.90
2018-12-27T05:39:47.767Z,99.90
2018-12-27T05:42:16.739Z,99.90
2018-12-27T05:44:45.602Z,99.90
2018-12-27T05:47:14.495Z,99.90
2018-12-27T05:49:43.319Z,99.90
2018-12-27T05:52:12.393Z,99.90
2018-12-27T05:54:41.314Z,99.90
2018-12-27T05:57:10.189Z,99.90
2018-12-27T05:59:39.140Z,99.90
2018-12-27T06:02:07.996Z,99.90
2018-12-27T06:04:37.013Z,99.90
2018-12-27T06:07:05.968Z,99.90
2018-12-27T06:09:34.900Z,99.90
2018-12-27T06:12:03.780Z,99.90
2018-12-27T06:14:32.804Z,99.90
2018-12-27T06:17:01.845Z,99.90
2018-12-27T06:19:30.738Z,99.90
2018-12-27T06:21:59.692Z,99.90
2018-12-27T06:24:28.693Z,99.90
2018-12-27T06:26:57.657Z,99.90
2018-12-27T06:29:26.667Z,99.90
2018-12-27T06:31:55.565Z,99.90
2018-12-27T06:34:24.588Z,99.90
2018-12-27T06:36:53.497Z,99.90
2018-12-27T06:39:22.952Z,99.90
2018-12-27T06:41:51.830Z,99.90
2018-12-27T06:44:20.687Z,99.90
2018-12-27T06:46:49.544Z,99.90
2018-12-27T06:49:37.607Z,99.90
2018-12-27T06:52:06.544Z,99.90
2018-12-27T06:54:35.546Z,99.90
2018-12-27T06:57:04.485Z,99.90
2018-12-27T06:59:33.444Z,99.90
2018-12-27T07:02:02.455Z,99.90
2018-12-27T07:04:31.484Z,99.90
2018-12-27T07:07:00.432Z,99.90
2018-12-27T07:09:29.316Z,99.90
2018-12-27T07:11:58.315Z,99.90
2018-12-27T07:14:27.190Z,99.90
2018-12-27T07:16:56.072Z,99.90
2018-12-27T07:19:24.948Z,99.90
2018-12-27T07:21:53.883Z,99.90
2018-12-27T07:24:22.776Z,99.90
2018-12-27T07:26:51.840Z,99.90
2018-12-27T07:29:20.709Z,99.90
2018-12-27T07:31:49.720Z,99.90
2018-12-27T07:34:18.670Z,99.90
2018-12-27T07:36:47.563Z,99.90
2018-12-27T07:39:16.570Z,99.90
2018-12-27T07:41:45.518Z,99.90
2018-12-27T07:44:14.468Z,99.90
2018-12-27T07:46:43.311Z,99.90
2018-12-27T07:49:12.287Z,99.90
2018-12-27T07:51:41.295Z,99.90
2018-12-27T07:54:10.140Z,99.90
2018-12-27T07:56:39.076Z,99.90
2018-12-27T07:59:08.116Z,99.90
2018-12-27T08:01:37.046Z,99.90
2018-12-27T08:04:05.918Z,99.90
2018-12-27T08:06:34.792Z,99.90
2018-12-27T08:09:05.229Z,99.90
2018-12-27T08:11:34.235Z,99.90
2018-12-27T08:14:06.247Z,99.90
2018-12-27T08:16:35.180Z,99.90
2018-12-27T08:19:04.124Z,99.90
2018-12-27T08:21:33.011Z,99.90
2018-12-27T08:24:01.971Z,99.90
2018-12-27T08:26:30.895Z,99.90
2018-12-27T08:28:59.767Z,99.90
2018-12-27T08:31:28.755Z,99.90
2018-12-27T08:33:57.785Z,99.90
2018-12-27T08:36:26.628Z,99.90
2018-12-27T08:38:55.580Z,99.90
2018-12-27T08:41:24.580Z,99.90
2018-12-27T08:43:53.614Z,99.90
2018-12-27T08:46:22.567Z,99.90
2018-12-27T08:48:51.411Z,99.90
2018-12-27T08:51:20.281Z,99.90
2018-12-27T08:53:49.196Z,99.90
2018-12-27T08:56:18.213Z,99.90
2018-12-27T08:58:47.059Z,99.90
2018-12-27T09:01:16.008Z,99.90
2018-12-27T09:03:48.032Z,99.90
2018-12-27T09:06:16.984Z,99.90
2018-12-27T09:08:45.836Z,99.90
2018-12-27T09:11:14.740Z,99.90
2018-12-27T09:13:43.606Z,99.90
2018-12-27T09:16:12.468Z,99.90
2018-12-27T09:18:41.392Z,99.90
2018-12-27T09:21:10.259Z,99.90
2018-12-27T09:23:39.155Z,99.90
2018-12-27T09:26:08.153Z,99.90
2018-12-27T09:28:37.075Z,99.90
2018-12-27T09:31:06.011Z,99.90
2018-12-27T09:33:34.922Z,99.90
2018-12-27T09:36:03.885Z,99.90
2018-12-27T09:38:32.735Z,99.90
2018-12-27T09:41:01.700Z,99.90
2018-12-27T09:43:30.689Z,99.90
2018-12-27T09:45:59.655Z,99.90
2018-12-27T09:48:28.666Z,99.90
2018-12-27T09:50:57.669Z,99.90
2018-12-27T09:53:26.608Z,99.90
2018-12-27T09:55:55.487Z,99.90
2018-12-27T09:58:24.466Z,99.90
2018-12-27T10:00:53.433Z,99.90
2018-12-27T10:03:22.380Z,99.90
2018-12-27T10:05:51.292Z,99.90
2018-12-27T10:08:20.312Z,99.90
2018-12-27T10:10:49.304Z,99.90
2018-12-27T10:13:18.241Z,99.90
2018-12-27T10:15:47.247Z,99.90
2018-12-27T10:18:16.259Z,99.90
2018-12-27T10:20:45.215Z,99.70
2018-12-27T10:23:14.168Z,99.70
2018-12-27T10:25:43.225Z,99.10
2018-12-27T10:28:12.259Z,98.50
2018-12-27T10:30:41.168Z,97.80
2018-12-27T10:33:10.032Z,97.70
2018-12-27T10:35:41.256Z,97.50
2018-12-27T10:38:09.517Z,97.20
2018-12-27T10:40:38.458Z,96.40
2018-12-27T10:43:07.315Z,95.80
2018-12-27T10:45:36.639Z,95.20
2018-12-27T10:48:05.629Z,94.60
2018-12-27T10:50:34.525Z,93.60
2018-12-27T10:53:03.494Z,90.70
2018-12-27T10:55:32.419Z,83.80
2018-12-27T10:58:01.371Z,76.40
2018-12-27T11:00:30.396Z,65.50
2018-12-27T11:02:59.298Z,60.90
2018-12-27T11:05:28.277Z,56.30
2018-12-27T11:07:57.151Z,53.80
2018-12-27T11:10:26.004Z,51.10
2018-12-27T11:12:54.876Z,51.00
2018-12-27T11:15:23.845Z,48.70
2018-12-27T11:17:54.319Z,47.90
2018-12-27T11:20:23.234Z,46.20
2018-12-27T11:22:52.231Z,45.70
2018-12-27T11:25:21.055Z,44.40
2018-12-27T11:27:50.116Z,44.20
2018-12-27T11:30:19.072Z,44.50
2018-12-27T11:32:48.106Z,46.50
2018-12-27T11:35:17.137Z,49.10
2018-12-27T11:37:45.991Z,49.00
2018-12-27T11:40:14.952Z,47.10
2018-12-27T11:42:43.915Z,46.10
2018-12-27T11:45:12.932Z,41.70
2018-12-27T11:47:41.883Z,38.70
2018-12-27T11:50:10.908Z,34.70
2018-12-27T11:52:39.848Z,32.50
2018-12-27T11:55:08.737Z,30.90
2018-12-27T11:57:37.605Z,30.10
2018-12-27T12:00:08.351Z,29.00
2018-12-27T12:02:37.276Z,28.20
2018-12-27T12:05:06.650Z,28.30
2018-12-27T12:07:35.539Z,28.10
2018-12-27T12:10:05.144Z,28.60
2018-12-27T12:12:34.173Z,29.60
2018-12-27T12:15:03.436Z,31.30
2018-12-27T12:17:32.414Z,32.90
2018-12-27T12:20:01.338Z,34.30
2018-12-27T12:22:30.276Z,35.50
2018-12-27T12:24:59.247Z,36.80
2018-12-27T12:27:28.348Z,36.70
2018-12-27T12:29:57.357Z,35.50
2018-12-27T12:32:26.268Z,35.70
2018-12-27T12:34:55.232Z,36.50
2018-12-27T12:37:24.667Z,37.40
2018-12-27T12:39:53.763Z,38.00
2018-12-27T12:42:32.839Z,39.50
2018-12-27T12:44:53.425Z,39.60
2018-12-27T12:47:22.360Z,40.40
2018-12-27T12:49:51.236Z,41.60
2018-12-27T12:52:20.299Z,43.30
2018-12-27T12:54:49.220Z,44.50
2018-12-27T12:57:18.865Z,44.80
2018-12-27T12:59:47.864Z,45.90
2018-12-27T13:02:16.824Z,46.20
2018-12-27T13:04:45.843Z,46.90
2018-12-27T13:07:14.864Z,47.40
2018-12-27T13:09:43.873Z,48.90
2018-12-27T13:12:12.823Z,49.60
2018-12-27T13:14:41.828Z,49.60
2018-12-27T13:17:10.868Z,50.20
2018-12-27T13:19:39.813Z,50.30
2018-12-27T13:22:08.831Z,51.40
2018-12-27T13:24:37.794Z,52.60
2018-12-27T13:27:07.060Z,54.00
2018-12-27T13:29:36.088Z,54.60
2018-12-27T13:32:05.248Z,56.10
2018-12-27T13:34:34.215Z,57.20
2018-12-27T13:37:03.223Z,58.10
2018-12-27T13:39:32.256Z,60.20
2018-12-27T13:42:01.198Z,60.90
2018-12-27T13:44:30.128Z,62.30
2018-12-27T13:46:59.403Z,63.80
2018-12-27T13:49:28.411Z,65.10
2018-12-27T13:51:57.313Z,66.70
2018-12-27T13:54:26.277Z,68.40
2018-12-27T13:56:55.183Z,70.20
2018-12-27T13:59:24.167Z,72.20
2018-12-27T14:01:53.223Z,73.70
2018-12-27T14:04:22.272Z,76.00
2018-12-27T14:06:51.212Z,77.30
2018-12-27T14:09:20.117Z,80.10
2018-12-27T14:11:49.197Z,82.60
2018-12-27T14:14:18.139Z,86.00
2018-12-27T14:16:47.089Z,88.00
2018-12-27T14:19:16.020Z,90.60
2018-12-27T14:21:45.056Z,92.40
2018-12-27T14:24:13.909Z,94.10
2018-12-27T14:26:42.846Z,95.40
2018-12-27T14:29:11.791Z,96.50
2018-12-27T14:31:40.804Z,97.70
2018-12-27T14:34:09.852Z,98.90
2018-12-27T14:36:39.838Z,99.80
2018-12-27T14:39:09.080Z,99.90
2018-12-27T14:41:38.104Z,99.90
2018-12-27T14:44:07.016Z,99.90
2018-12-27T14:46:36.013Z,99.90
2018-12-27T14:49:04.976Z,99.90
2018-12-27T14:51:33.980Z,99.90
2018-12-27T14:54:02.966Z,99.90
2018-12-27T14:56:32.013Z,99.90
2018-12-27T14:59:00.978Z,99.90
2018-12-27T15:01:30.008Z,99.90
2018-12-27T15:03:58.968Z,99.90
2018-12-27T15:06:27.911Z,99.90
2018-12-27T15:08:56.815Z,99.90
2018-12-27T15:11:25.773Z,99.90
2018-12-27T15:13:54.644Z,99.90
2018-12-27T15:16:23.596Z,99.90
2018-12-27T15:18:52.548Z,99.90
2018-12-27T15:21:21.607Z,99.90
2018-12-27T15:23:50.646Z,99.90
2018-12-27T15:26:19.579Z,99.90
2018-12-27T15:28:48.527Z,99.90
2018-12-27T15:31:17.554Z,99.90
2018-12-27T15:33:46.448Z,99.90
2018-12-27T15:36:15.382Z,99.90
2018-12-27T15:38:44.268Z,99.90
2018-12-27T15:41:13.199Z,99.90
2018-12-27T15:43:42.193Z,99.90
2018-12-27T15:46:11.068Z,99.90
2018-12-27T15:48:40.092Z,99.90
2018-12-27T15:51:09.043Z,99.90
2018-12-27T15:53:37.975Z,99.90
2018-12-27T15:56:07.033Z,99.90
2018-12-27T15:58:35.992Z,99.90
2018-12-27T16:01:05.009Z,99.90
2018-12-27T16:03:33.924Z,99.90
2018-12-27T16:06:02.944Z,99.90
2018-12-27T16:08:31.882Z,99.90
2018-12-27T16:11:00.912Z,99.90
2018-12-27T16:13:29.839Z,99.90
2018-12-27T16:15:58.803Z,99.90
2018-12-27T16:18:27.839Z,99.90
2018-12-27T16:20:56.789Z,99.90
2018-12-27T16:23:25.795Z,99.90
2018-12-27T16:25:54.784Z,99.90
2018-12-27T16:28:23.643Z,99.90
2018-12-27T16:30:52.616Z,99.90
2018-12-27T16:33:21.665Z,99.90
2018-12-27T16:35:50.700Z,99.90
2018-12-27T16:38:19.551Z,99.90
2018-12-27T16:40:48.561Z,99.90
2018-12-27T16:43:17.776Z,99.90
2018-12-27T16:45:46.826Z,99.90
2018-12-27T16:48:15.748Z,99.90
2018-12-27T16:50:44.636Z,99.90
2018-12-27T16:53:13.568Z,99.90
2018-12-27T16:55:42.608Z,99.90
2018-12-27T16:58:11.511Z,99.90
2018-12-27T17:00:40.486Z,99.90
2018-12-27T17:03:09.435Z,99.90
2018-12-27T17:05:38.322Z,99.90
2018-12-27T17:08:07.379Z,99.90
2018-12-27T17:10:36.345Z,99.90
2018-12-27T17:13:05.293Z,99.90
2018-12-27T17:15:34.230Z,99.90
2018-12-27T17:18:03.267Z,99.90
2018-12-27T17:20:32.287Z,99.90
2018-12-27T17:23:01.162Z,99.90
2018-12-27T17:25:30.065Z,99.90
2018-12-27T17:27:59.013Z,99.90
2018-12-27T17:30:28.042Z,99.90
2018-12-27T17:32:56.910Z,99.90
2018-12-27T17:35:25.804Z,99.90
2018-12-27T17:37:54.828Z,99.90
2018-12-27T17:40:23.762Z,99.90
2018-12-27T17:42:52.840Z,99.90
2018-12-27T17:45:21.818Z,99.90
2018-12-27T17:47:50.765Z,99.90
2018-12-27T17:50:19.769Z,99.90
2018-12-27T17:52:48.812Z,99.90
2018-12-27T17:55:17.680Z,99.90
2018-12-27T17:57:52.395Z,99.90
2018-12-27T18:00:21.292Z,99.90
2018-12-27T18:02:50.162Z,99.90
2018-12-27T18:05:19.129Z,99.90
2018-12-27T18:07:48.076Z,99.90
2018-12-27T18:10:17.170Z,99.90
2018-12-27T18:12:46.086Z,99.90
2018-12-27T18:15:15.112Z,99.90
2018-12-27T18:17:44.036Z,99.90
2018-12-27T18:20:13.522Z,99.90
2018-12-27T18:22:42.464Z,99.90
2018-12-27T18:25:11.408Z,99.90
2018-12-27T18:27:40.368Z,99.90
2018-12-27T18:30:09.379Z,99.90
2018-12-27T18:32:39.276Z,99.90
2018-12-27T18:35:08.543Z,99.90
2018-12-27T18:37:38.068Z,99.90
2018-12-27T18:40:07.417Z,99.90
2018-12-27T18:42:36.361Z,99.90
2018-12-27T18:45:05.580Z,99.90
2018-12-27T18:47:34.501Z,99.90
2018-12-27T18:50:03.885Z,99.90
2018-12-27T18:52:32.913Z,99.90
2018-12-27T18:55:01.898Z,99.90
2018-12-27T18:57:30.836Z,99.90
2018-12-27T18:59:59.888Z,99.90
2018-12-27T19:02:28.860Z,99.90
2018-12-27T19:04:57.816Z,99.90
2018-12-27T19:07:26.760Z,99.90
2018-12-27T19:09:55.858Z,99.90
2018-12-27T19:13:00.593Z,99.90
2018-12-27T19:15:30.615Z,99.90
2018-12-27T19:18:13.468Z,99.90
2018-12-27T19:20:43.667Z,99.90
2018-12-27T19:23:18.299Z,99.90
2018-12-27T19:25:47.262Z,99.90
2018-12-27T19:28:16.176Z,99.90
2018-12-27T19:30:45.247Z,99.90
2018-12-27T19:33:33.380Z,99.90
2018-12-27T19:36:02.421Z,99.90
2018-12-27T19:38:31.272Z,99.90
2018-12-27T19:41:00.249Z,99.90
2018-12-27T19:43:29.257Z,99.90
2018-12-27T19:45:58.216Z,99.90
2018-12-27T19:48:27.224Z,99.90
2018-12-27T19:50:56.250Z,99.90
2018-12-27T19:53:25.204Z,99.90
2018-12-27T19:55:54.238Z,99.90
2018-12-27T19:58:23.290Z,99.90
2018-12-27T20:00:52.306Z,99.90
2018-12-27T20:03:21.188Z,99.90
2018-12-27T20:05:50.261Z,99.90
2018-12-27T20:08:19.221Z,99.90
2018-12-27T20:10:48.145Z,99.90
2018-12-27T20:13:17.128Z,99.90
2018-12-27T20:15:46.105Z,99.90
2018-12-27T20:18:15.103Z,99.90
2018-12-27T20:20:44.077Z,99.90
2018-12-27T20:23:13.035Z,99.90
2018-12-27T20:25:41.882Z,99.90
2018-12-27T20:28:10.797Z,99.90
2018-12-27T20:30:39.820Z,99.90
2018-12-27T20:33:08.868Z,99.90
2018-12-27T20:35:37.844Z,99.90
2018-12-27T20:38:07.073Z,99.90
2018-12-27T20:40:36.073Z,99.90
2018-12-27T20:43:10.908Z,99.90
2018-12-27T20:45:39.966Z,99.90
2018-12-27T20:48:08.986Z,99.90
2018-12-27T20:50:37.979Z,99.90
2018-12-27T20:53:06.936Z,99.90
2018-12-27T20:55:35.898Z,99.90
2018-12-27T20:58:04.972Z,99.90
2018-12-27T21:00:33.986Z,99.90
2018-12-27T21:03:02.876Z,99.90
2018-12-27T21:05:51.036Z,99.90
2018-12-27T21:08:20.009Z,99.90
2018-12-27T21:10:48.956Z,99.90
2018-12-27T21:13:18.045Z,99.90
2018-12-27T21:15:46.988Z,99.90
2018-12-27T21:18:15.996Z,99.90
2018-12-27T21:20:44.915Z,99.90
2018-12-27T21:23:13.859Z,99.90
2018-12-27T21:25:42.896Z,99.90
2018-12-27T21:28:12.016Z,99.90
2018-12-27T21:30:40.976Z,99.90
2018-12-27T21:33:09.888Z,99.90
2018-12-27T21:35:38.928Z,99.90
2018-12-27T21:38:07.796Z,99.90
2018-12-27T21:40:36.791Z,99.90
2018-12-27T21:43:05.807Z,99.90
2018-12-27T21:45:34.767Z,99.90
2018-12-27T21:48:03.823Z,99.90
2018-12-27T21:50:32.780Z,99.90
2018-12-27T21:53:01.800Z,99.90
2018-12-27T21:55:30.736Z,99.90
2018-12-27T21:57:59.599Z,99.90
2018-12-27T22:00:28.695Z,99.90
2018-12-27T22:02:57.767Z,99.90
2018-12-27T22:05:26.755Z,99.90
2018-12-27T22:07:55.783Z,99.90
2018-12-27T22:10:43.818Z,99.90
2018-12-27T22:13:12.709Z,99.90
2018-12-27T22:15:41.672Z,99.90
2018-12-27T22:18:10.516Z,99.90
2018-12-27T22:20:39.453Z,99.90
2018-12-27T22:23:08.371Z,99.90
2018-12-27T22:25:37.371Z,99.90
2018-12-27T22:28:06.317Z,99.90
2018-12-27T22:30:35.318Z,99.90
2018-12-27T22:33:04.328Z,99.90
2018-12-27T22:35:33.184Z,99.90
2018-12-27T22:38:02.196Z,99.90
2018-12-27T22:40:31.204Z,99.90
2018-12-27T22:43:00.084Z,99.90
2018-12-27T22:45:28.968Z,99.90
2018-12-27T22:47:57.978Z,99.90
2018-12-27T22:50:26.921Z,99.90
2018-12-27T22:52:55.891Z,99.90
2018-12-27T22:55:24.967Z,99.90
2018-12-27T22:57:53.870Z,99.90
2018-12-27T23:00:41.980Z,99.90
2018-12-27T23:03:10.988Z,99.90
2018-12-27T23:05:39.936Z,99.90
2018-12-27T23:08:08.904Z,99.90
2018-12-27T23:10:37.859Z,99.90
2018-12-27T23:13:06.849Z,99.90
2018-12-27T23:15:35.828Z,99.90
2018-12-27T23:18:04.868Z,99.90
2018-12-27T23:20:33.891Z,99.90
2018-12-27T23:23:02.857Z,99.90
2018-12-27T23:25:31.790Z,99.90
2018-12-27T23:28:00.716Z,99.90
2018-12-27T23:30:29.655Z,99.90
2018-12-27T23:32:58.690Z,99.90
2018-12-27T23:35:27.597Z,99.90
2018-12-27T23:37:56.600Z,99.90
2018-12-27T23:40:25.582Z,99.90
2018-12-27T23:42:54.541Z,99.90
2018-12-27T23:45:23.556Z,99.90
2018-12-27T23:47:52.457Z,99.90
2018-12-27T23:50:21.531Z,99.90
2018-12-27T23:52:50.581Z,99.90
2018-12-27T23:55:19.621Z,99.90
2018-12-27T23:57:48.514Z,99.90
